sensor_id;sensor_type;location;lat;lon;timestamp;P1;durP1;ratioP1;P2;durP2;ratioP2
77748;SDS011;66938;52.084;5.228;2024-02-14T00:00:13;7.6;;;6.8;;
77748;SDS011;66938;52.084;5.228;2024-02-14T00:01:49;8.2;;;6.8;;
77748;SDS011;66938;52.084;5.228;2024-02-14T00:05:00;9.21;;;7.2;;
77748;SDS011;66938;52.084;5.228;2024-02-14T00:06:37;10.3;;;7.8;;
77748;SDS011;66938;52.084;5.228;2024-02-14T00:08:13;8.6;;;6.8;;
77748;SDS011;66938;52.084;5.228;2024-02-14T00:11:26;9.1;;;7.3;;
77748;SDS011;66938;52.084;5.228;2024-02-14T00:13:02;8.81;;;7.6;;
77748;SDS011;66938;52.084;5.228;2024-02-14T00:14:38;8.31;;;7.4;;
77748;SDS011;66938;52.084;5.228;2024-02-14T00:16:14;9.21;;;7.4;;
77748;SDS011;66938;52.084;5.228;2024-02-14T00:19:26;9.4;;;8.2;;
77748;SDS011;66938;52.084;5.228;2024-02-14T00:21:02;9.5;;;8.2;;
77748;SDS011;66938;52.084;5.228;2024-02-14T00:22:38;8.31;;;7.4;;
77748;SDS011;66938;52.084;5.228;2024-02-14T00:25:51;9.4;;;8.2;;
77748;SDS011;66938;52.084;5.228;2024-02-14T00:27:27;10.1;;;9.1;;
77748;SDS011;66938;52.084;5.228;2024-02-14T00:29:03;12.7;;;9.5;;
77748;SDS011;66938;52.084;5.228;2024-02-14T00:32:18;11.3;;;9.31;;
77748;SDS011;66938;52.084;5.228;2024-02-14T00:33:55;9.71;;;8.6;;
77748;SDS011;66938;52.084;5.228;2024-02-14T00:35:31;10.4;;;8.9;;
77748;SDS011;66938;52.084;5.228;2024-02-14T00:37:07;11.9;;;9.4;;
77748;SDS011;66938;52.084;5.228;2024-02-14T00:40:19;9.81;;;8.81;;
77748;SDS011;66938;52.084;5.228;2024-02-14T00:41:56;10.7;;;9.6;;
77748;SDS011;66938;52.084;5.228;2024-02-14T00:43:32;11.3;;;9.71;;
77748;SDS011;66938;52.084;5.228;2024-02-14T00:46:45;11.8;;;10.4;;
77748;SDS011;66938;52.084;5.228;2024-02-14T00:48:21;13.2;;;10.4;;
77748;SDS011;66938;52.084;5.228;2024-02-14T00:49:57;13.1;;;10.4;;
77748;SDS011;66938;52.084;5.228;2024-02-14T00:53:09;11.8;;;10.6;;
77748;SDS011;66938;52.084;5.228;2024-02-14T00:54:45;13.1;;;10.7;;
77748;SDS011;66938;52.084;5.228;2024-02-14T00:56:21;11.2;;;10.1;;
77748;SDS011;66938;52.084;5.228;2024-02-14T00:59:34;13.4;;;11.0;;
77748;SDS011;66938;52.084;5.228;2024-02-14T01:01:10;13.1;;;11.7;;
77748;SDS011;66938;52.084;5.228;2024-02-14T01:02:46;11.2;;;10.1;;
77748;SDS011;66938;52.084;5.228;2024-02-14T01:04:22;14.3;;;12.1;;
77748;SDS011;66938;52.084;5.228;2024-02-14T01:07:37;12.4;;;11.2;;
77748;SDS011;66938;52.084;5.228;2024-02-14T01:09:13;13.0;;;11.7;;
77748;SDS011;66938;52.084;5.228;2024-02-14T01:10:49;12.5;;;11.2;;
77748;SDS011;66938;52.084;5.228;2024-02-14T01:14:02;13.7;;;12.2;;
77748;SDS011;66938;52.084;5.228;2024-02-14T01:15:38;14.7;;;12.7;;
77748;SDS011;66938;52.084;5.228;2024-02-14T01:17:14;12.4;;;11.2;;
77748;SDS011;66938;52.084;5.228;2024-02-14T01:20:26;14.4;;;11.8;;
77748;SDS011;66938;52.084;5.228;2024-02-14T01:22:02;12.8;;;11.5;;
77748;SDS011;66938;52.084;5.228;2024-02-14T01:23:38;13.2;;;11.9;;
77748;SDS011;66938;52.084;5.228;2024-02-14T01:25:14;13.2;;;11.9;;
77748;SDS011;66938;52.084;5.228;2024-02-14T01:28:27;12.8;;;11.5;;
77748;SDS011;66938;52.084;5.228;2024-02-14T01:30:03;13.6;;;12.2;;
77748;SDS011;66938;52.084;5.228;2024-02-14T01:31:40;15.9;;;14.2;;
77748;SDS011;66938;52.084;5.228;2024-02-14T01:34:52;15.4;;;12.8;;
77748;SDS011;66938;52.084;5.228;2024-02-14T01:36:28;15.2;;;13.5;;
77748;SDS011;66938;52.084;5.228;2024-02-14T01:38:05;12.5;;;11.2;;
77748;SDS011;66938;52.084;5.228;2024-02-14T01:41:16;14.9;;;13.4;;
77748;SDS011;66938;52.084;5.228;2024-02-14T01:42:52;13.4;;;12.0;;
77748;SDS011;66938;52.084;5.228;2024-02-14T01:44:29;13.6;;;12.2;;
77748;SDS011;66938;52.084;5.228;2024-02-14T01:47:42;14.0;;;12.6;;
77748;SDS011;66938;52.084;5.228;2024-02-14T01:49:18;14.6;;;12.9;;
77748;SDS011;66938;52.084;5.228;2024-02-14T01:50:54;14.4;;;13.0;;
77748;SDS011;66938;52.084;5.228;2024-02-14T01:52:30;14.6;;;13.0;;
77748;SDS011;66938;52.084;5.228;2024-02-14T01:55:42;14.8;;;13.3;;
77748;SDS011;66938;52.084;5.228;2024-02-14T01:57:18;15.8;;;13.9;;
77748;SDS011;66938;52.084;5.228;2024-02-14T01:58:55;14.4;;;12.9;;
77748;SDS011;66938;52.084;5.228;2024-02-14T02:02:09;17.61;;;14.6;;
77748;SDS011;66938;52.084;5.228;2024-02-14T02:03:48;17.61;;;15.2;;
77748;SDS011;66938;52.084;5.228;2024-02-14T02:05:24;15.9;;;14.2;;
77748;SDS011;66938;52.084;5.228;2024-02-14T02:08:36;14.9;;;13.3;;
77748;SDS011;66938;52.084;5.228;2024-02-14T02:10:12;17.8;;;15.2;;
77748;SDS011;66938;52.084;5.228;2024-02-14T02:11:49;13.6;;;12.0;;
77748;SDS011;66938;52.084;5.228;2024-02-14T02:13:25;15.1;;;13.4;;
77748;SDS011;66938;52.084;5.228;2024-02-14T02:16:38;14.7;;;13.2;;
77748;SDS011;66938;52.084;5.228;2024-02-14T02:18:14;14.4;;;12.9;;
77748;SDS011;66938;52.084;5.228;2024-02-14T02:19:52;15.2;;;13.6;;
77748;SDS011;66938;52.084;5.228;2024-02-14T02:23:05;14.7;;;13.2;;
77748;SDS011;66938;52.084;5.228;2024-02-14T02:24:41;14.7;;;13.1;;
77748;SDS011;66938;52.084;5.228;2024-02-14T02:26:17;16.11;;;14.4;;
77748;SDS011;66938;52.084;5.228;2024-02-14T02:29:30;14.1;;;12.7;;
77748;SDS011;66938;52.084;5.228;2024-02-14T02:31:09;16.5;;;13.3;;
77748;SDS011;66938;52.084;5.228;2024-02-14T02:32:45;16.5;;;13.2;;
77748;SDS011;66938;52.084;5.228;2024-02-14T02:34:21;15.7;;;13.4;;
77748;SDS011;66938;52.084;5.228;2024-02-14T02:37:34;16.2;;;13.6;;
77748;SDS011;66938;52.084;5.228;2024-02-14T02:39:11;16.4;;;13.6;;
77748;SDS011;66938;52.084;5.228;2024-02-14T02:40:47;16.4;;;13.3;;
77748;SDS011;66938;52.084;5.228;2024-02-14T02:44:00;16.4;;;13.3;;
77748;SDS011;66938;52.084;5.228;2024-02-14T02:45:36;14.4;;;12.9;;
77748;SDS011;66938;52.084;5.228;2024-02-14T02:47:12;15.3;;;13.0;;
77748;SDS011;66938;52.084;5.228;2024-02-14T02:50:24;13.9;;;12.5;;
77748;SDS011;66938;52.084;5.228;2024-02-14T02:52:00;13.5;;;11.8;;
77748;SDS011;66938;52.084;5.228;2024-02-14T02:53:36;13.7;;;12.2;;
77748;SDS011;66938;52.084;5.228;2024-02-14T02:55:12;15.1;;;12.6;;
77748;SDS011;66938;52.084;5.228;2024-02-14T02:58:24;13.5;;;12.0;;
77748;SDS011;66938;52.084;5.228;2024-02-14T03:00:01;13.6;;;12.2;;
77748;SDS011;66938;52.084;5.228;2024-02-14T03:01:37;16.4;;;12.7;;
77748;SDS011;66938;52.084;5.228;2024-02-14T03:04:49;13.5;;;12.1;;
77748;SDS011;66938;52.084;5.228;2024-02-14T03:06:25;12.8;;;11.5;;
77748;SDS011;66938;52.084;5.228;2024-02-14T03:08:01;12.6;;;11.3;;
77748;SDS011;66938;52.084;5.228;2024-02-14T03:11:14;14.2;;;12.7;;
77748;SDS011;66938;52.084;5.228;2024-02-14T03:12:51;15.3;;;12.1;;
77748;SDS011;66938;52.084;5.228;2024-02-14T03:14:28;14.5;;;13.0;;
77748;SDS011;66938;52.084;5.228;2024-02-14T03:16:05;12.0;;;10.7;;
77748;SDS011;66938;52.084;5.228;2024-02-14T03:19:17;15.9;;;13.0;;
77748;SDS011;66938;52.084;5.228;2024-02-14T03:20:53;15.0;;;13.4;;
77748;SDS011;66938;52.084;5.228;2024-02-14T03:22:29;15.3;;;13.7;;
77748;SDS011;66938;52.084;5.228;2024-02-14T03:25:41;15.6;;;12.4;;
77748;SDS011;66938;52.084;5.228;2024-02-14T03:27:18;17.5;;;13.9;;
77748;SDS011;66938;52.084;5.228;2024-02-14T03:28:54;16.0;;;12.8;;
77748;SDS011;66938;52.084;5.228;2024-02-14T03:32:07;13.9;;;12.4;;
77748;SDS011;66938;52.084;5.228;2024-02-14T03:33:43;15.7;;;12.8;;
77748;SDS011;66938;52.084;5.228;2024-02-14T03:35:19;17.91;;;12.7;;
77748;SDS011;66938;52.084;5.228;2024-02-14T03:38:31;16.2;;;13.3;;
77748;SDS011;66938;52.084;5.228;2024-02-14T03:40:08;19.0;;;13.9;;
77748;SDS011;66938;52.084;5.228;2024-02-14T03:41:44;17.61;;;13.0;;
77748;SDS011;66938;52.084;5.228;2024-02-14T03:43:20;17.91;;;13.1;;
77748;SDS011;66938;52.084;5.228;2024-02-14T03:46:32;18.3;;;12.1;;
77748;SDS011;66938;52.084;5.228;2024-02-14T03:48:09;17.5;;;12.1;;
77748;SDS011;66938;52.084;5.228;2024-02-14T03:49:45;17.8;;;12.6;;
77748;SDS011;66938;52.084;5.228;2024-02-14T03:52:59;19.61;;;13.8;;
77748;SDS011;66938;52.084;5.228;2024-02-14T03:54:35;16.2;;;12.3;;
77748;SDS011;66938;52.084;5.228;2024-02-14T03:56:11;17.91;;;12.5;;
77748;SDS011;66938;52.084;5.228;2024-02-14T03:59:23;17.41;;;12.7;;
77748;SDS011;66938;52.084;5.228;2024-02-14T04:01:00;19.41;;;13.4;;
77748;SDS011;66938;52.084;5.228;2024-02-14T04:02:36;18.0;;;12.9;;
77748;SDS011;66938;52.084;5.228;2024-02-14T04:04:12;18.7;;;12.0;;
77748;SDS011;66938;52.084;5.228;2024-02-14T04:07:24;20.11;;;13.4;;
77748;SDS011;66938;52.084;5.228;2024-02-14T04:09:00;17.2;;;12.0;;
77748;SDS011;66938;52.084;5.228;2024-02-14T04:10:36;18.61;;;12.2;;
77748;SDS011;66938;52.084;5.228;2024-02-14T04:13:48;18.91;;;13.2;;
77748;SDS011;66938;52.084;5.228;2024-02-14T04:15:25;18.11;;;11.7;;
77748;SDS011;66938;52.084;5.228;2024-02-14T04:17:01;19.5;;;12.8;;
77748;SDS011;66938;52.084;5.228;2024-02-14T04:20:13;17.7;;;11.8;;
77748;SDS011;66938;52.084;5.228;2024-02-14T04:21:49;19.8;;;11.8;;
77748;SDS011;66938;52.084;5.228;2024-02-14T04:23:25;20.11;;;12.6;;
77748;SDS011;66938;52.084;5.228;2024-02-14T04:26:37;17.61;;;11.7;;
77748;SDS011;66938;52.084;5.228;2024-02-14T04:28:13;18.41;;;12.0;;
77748;SDS011;66938;52.084;5.228;2024-02-14T04:29:49;17.2;;;11.5;;
77748;SDS011;66938;52.084;5.228;2024-02-14T04:31:26;14.2;;;10.9;;
77748;SDS011;66938;52.084;5.228;2024-02-14T04:34:38;14.8;;;11.0;;
77748;SDS011;66938;52.084;5.228;2024-02-14T04:36:14;20.0;;;12.0;;
77748;SDS011;66938;52.084;5.228;2024-02-14T04:37:50;17.11;;;11.5;;
77748;SDS011;66938;52.084;5.228;2024-02-14T04:41:02;16.2;;;11.2;;
77748;SDS011;66938;52.084;5.228;2024-02-14T04:42:38;14.3;;;10.5;;
77748;SDS011;66938;52.084;5.228;2024-02-14T04:44:14;19.8;;;11.9;;
77748;SDS011;66938;52.084;5.228;2024-02-14T04:47:27;18.91;;;11.2;;
77748;SDS011;66938;52.084;5.228;2024-02-14T04:49:03;15.0;;;10.7;;
77748;SDS011;66938;52.084;5.228;2024-02-14T04:50:39;16.8;;;11.6;;
77748;SDS011;66938;52.084;5.228;2024-02-14T04:53:51;18.11;;;11.8;;
77748;SDS011;66938;52.084;5.228;2024-02-14T04:55:27;16.2;;;11.6;;
77748;SDS011;66938;52.084;5.228;2024-02-14T04:57:03;15.9;;;11.3;;
77748;SDS011;66938;52.084;5.228;2024-02-14T04:58:39;17.7;;;11.5;;
77748;SDS011;66938;52.084;5.228;2024-02-14T05:01:52;15.3;;;10.21;;
77748;SDS011;66938;52.084;5.228;2024-02-14T05:03:29;17.11;;;11.3;;
77748;SDS011;66938;52.084;5.228;2024-02-14T05:05:05;17.0;;;10.9;;
77748;SDS011;66938;52.084;5.228;2024-02-14T05:08:17;16.3;;;11.4;;
77748;SDS011;66938;52.084;5.228;2024-02-14T05:09:53;14.5;;;10.6;;
77748;SDS011;66938;52.084;5.228;2024-02-14T05:11:29;18.7;;;12.0;;
77748;SDS011;66938;52.084;5.228;2024-02-14T05:14:41;14.9;;;11.2;;
77748;SDS011;66938;52.084;5.228;2024-02-14T05:16:17;18.41;;;11.9;;
77748;SDS011;66938;52.084;5.228;2024-02-14T05:17:53;17.3;;;11.7;;
77748;SDS011;66938;52.084;5.228;2024-02-14T05:19:30;16.61;;;12.2;;
77748;SDS011;66938;52.084;5.228;2024-02-14T05:22:43;17.11;;;11.6;;
77748;SDS011;66938;52.084;5.228;2024-02-14T05:24:19;24.2;;;12.6;;
77748;SDS011;66938;52.084;5.228;2024-02-14T05:25:55;15.9;;;11.8;;
77748;SDS011;66938;52.084;5.228;2024-02-14T05:29:07;14.6;;;12.3;;
77748;SDS011;66938;52.084;5.228;2024-02-14T05:30:43;18.0;;;14.1;;
77748;SDS011;66938;52.084;5.228;2024-02-14T05:32:19;17.3;;;12.9;;
77748;SDS011;66938;52.084;5.228;2024-02-14T05:35:32;17.61;;;12.7;;
77748;SDS011;66938;52.084;5.228;2024-02-14T05:37:08;14.4;;;12.0;;
77748;SDS011;66938;52.084;5.228;2024-02-14T05:38:44;16.4;;;13.1;;
77748;SDS011;66938;52.084;5.228;2024-02-14T05:41:56;16.0;;;12.7;;
77748;SDS011;66938;52.084;5.228;2024-02-14T05:43:32;15.1;;;11.9;;
77748;SDS011;66938;52.084;5.228;2024-02-14T05:45:08;16.8;;;13.1;;
77748;SDS011;66938;52.084;5.228;2024-02-14T05:46:45;15.4;;;12.4;;
77748;SDS011;66938;52.084;5.228;2024-02-14T05:49:58;15.3;;;12.3;;
77748;SDS011;66938;52.084;5.228;2024-02-14T05:51:34;15.7;;;11.4;;
77748;SDS011;66938;52.084;5.228;2024-02-14T05:53:10;13.7;;;11.6;;
77748;SDS011;66938;52.084;5.228;2024-02-14T05:56:22;16.61;;;12.7;;
77748;SDS011;66938;52.084;5.228;2024-02-14T05:57:58;15.8;;;12.1;;
77748;SDS011;66938;52.084;5.228;2024-02-14T05:59:34;15.7;;;12.5;;
77748;SDS011;66938;52.084;5.228;2024-02-14T06:02:46;15.1;;;12.2;;
77748;SDS011;66938;52.084;5.228;2024-02-14T06:04:23;13.1;;;11.3;;
77748;SDS011;66938;52.084;5.228;2024-02-14T06:05:59;15.1;;;11.8;;
77748;SDS011;66938;52.084;5.228;2024-02-14T06:09:11;15.5;;;12.3;;
77748;SDS011;66938;52.084;5.228;2024-02-14T06:10:47;13.3;;;11.6;;
77748;SDS011;66938;52.084;5.228;2024-02-14T06:12:23;13.4;;;11.2;;
77748;SDS011;66938;52.084;5.228;2024-02-14T06:13:59;13.2;;;10.4;;
77748;SDS011;66938;52.084;5.228;2024-02-14T06:17:11;12.5;;;9.81;;
77748;SDS011;66938;52.084;5.228;2024-02-14T06:18:47;13.5;;;10.0;;
77748;SDS011;66938;52.084;5.228;2024-02-14T06:20:23;10.9;;;9.6;;
77748;SDS011;66938;52.084;5.228;2024-02-14T06:23:35;11.9;;;10.0;;
77748;SDS011;66938;52.084;5.228;2024-02-14T06:25:11;12.3;;;11.0;;
77748;SDS011;66938;52.084;5.228;2024-02-14T06:26:47;12.7;;;10.7;;
77748;SDS011;66938;52.084;5.228;2024-02-14T06:29:59;12.7;;;11.3;;
77748;SDS011;66938;52.084;5.228;2024-02-14T06:31:35;13.6;;;11.8;;
77748;SDS011;66938;52.084;5.228;2024-02-14T06:33:11;15.2;;;12.2;;
77748;SDS011;66938;52.084;5.228;2024-02-14T06:34:48;14.3;;;11.9;;
77748;SDS011;66938;52.084;5.228;2024-02-14T06:38:00;14.4;;;12.7;;
77748;SDS011;66938;52.084;5.228;2024-02-14T06:39:36;15.3;;;13.0;;
77748;SDS011;66938;52.084;5.228;2024-02-14T06:41:12;16.7;;;14.2;;
77748;SDS011;66938;52.084;5.228;2024-02-14T06:44:24;15.8;;;13.3;;
77748;SDS011;66938;52.084;5.228;2024-02-14T06:46:00;15.0;;;12.8;;
77748;SDS011;66938;52.084;5.228;2024-02-14T06:47:36;16.2;;;12.8;;
77748;SDS011;66938;52.084;5.228;2024-02-14T06:50:49;17.41;;;14.1;;
77748;SDS011;66938;52.084;5.228;2024-02-14T06:52:25;16.0;;;14.3;;
77748;SDS011;66938;52.084;5.228;2024-02-14T06:54:02;20.3;;;15.8;;
77748;SDS011;66938;52.084;5.228;2024-02-14T06:57:14;17.8;;;14.2;;
77748;SDS011;66938;52.084;5.228;2024-02-14T06:58:50;18.41;;;15.6;;
77748;SDS011;66938;52.084;5.228;2024-02-14T07:00:26;18.7;;;15.1;;
77748;SDS011;66938;52.084;5.228;2024-02-14T07:02:03;18.91;;;15.5;;
77748;SDS011;66938;52.084;5.228;2024-02-14T07:05:17;22.5;;;16.5;;
77748;SDS011;66938;52.084;5.228;2024-02-14T07:06:52;23.6;;;16.11;;
77748;SDS011;66938;52.084;5.228;2024-02-14T07:08:29;22.0;;;17.61;;
77748;SDS011;66938;52.084;5.228;2024-02-14T07:11:42;26.0;;;18.11;;
77748;SDS011;66938;52.084;5.228;2024-02-14T07:13:18;23.4;;;18.5;;
77748;SDS011;66938;52.084;5.228;2024-02-14T07:14:54;22.1;;;16.7;;
77748;SDS011;66938;52.084;5.228;2024-02-14T07:18:06;22.3;;;17.5;;
77748;SDS011;66938;52.084;5.228;2024-02-14T07:19:42;24.1;;;18.61;;
77748;SDS011;66938;52.084;5.228;2024-02-14T07:21:18;21.7;;;17.0;;
77748;SDS011;66938;52.084;5.228;2024-02-14T07:22:54;23.9;;;17.3;;
77748;SDS011;66938;52.084;5.228;2024-02-14T07:26:07;28.1;;;18.7;;
77748;SDS011;66938;52.084;5.228;2024-02-14T07:27:43;25.9;;;19.2;;
77748;SDS011;66938;52.084;5.228;2024-02-14T07:29:19;25.5;;;18.41;;
77748;SDS011;66938;52.084;5.228;2024-02-14T07:32:31;24.9;;;18.3;;
77748;SDS011;66938;52.084;5.228;2024-02-14T07:34:07;22.9;;;17.11;;
77748;SDS011;66938;52.084;5.228;2024-02-14T07:35:43;22.7;;;17.5;;
77748;SDS011;66938;52.084;5.228;2024-02-14T07:38:55;25.0;;;17.91;;
77748;SDS011;66938;52.084;5.228;2024-02-14T07:40:31;24.6;;;17.7;;
77748;SDS011;66938;52.084;5.228;2024-02-14T07:42:10;23.3;;;16.9;;
77748;SDS011;66938;52.084;5.228;2024-02-14T07:45:23;20.41;;;16.2;;
77748;SDS011;66938;52.084;5.228;2024-02-14T07:46:59;24.9;;;17.11;;
77748;SDS011;66938;52.084;5.228;2024-02-14T07:48:35;22.2;;;15.6;;
77748;SDS011;66938;52.084;5.228;2024-02-14T07:50:11;24.1;;;16.8;;
77748;SDS011;66938;52.084;5.228;2024-02-14T07:53:23;20.0;;;16.5;;
77748;SDS011;66938;52.084;5.228;2024-02-14T07:54:59;18.2;;;15.2;;
77748;SDS011;66938;52.084;5.228;2024-02-14T07:56:36;19.11;;;16.2;;
77748;SDS011;66938;52.084;5.228;2024-02-14T07:59:48;18.3;;;15.9;;
77748;SDS011;66938;52.084;5.228;2024-02-14T08:01:24;20.7;;;17.2;;
77748;SDS011;66938;52.084;5.228;2024-02-14T08:03:01;17.91;;;14.7;;
77748;SDS011;66938;52.084;5.228;2024-02-14T08:06:13;19.5;;;16.4;;
77748;SDS011;66938;52.084;5.228;2024-02-14T08:07:49;20.3;;;17.0;;
77748;SDS011;66938;52.084;5.228;2024-02-14T08:09:25;18.61;;;15.5;;
77748;SDS011;66938;52.084;5.228;2024-02-14T08:11:01;17.5;;;14.8;;
77748;SDS011;66938;52.084;5.228;2024-02-14T08:14:14;17.91;;;15.0;;
77748;SDS011;66938;52.084;5.228;2024-02-14T08:15:53;22.1;;;15.8;;
77748;SDS011;66938;52.084;5.228;2024-02-14T08:17:29;21.7;;;16.61;;
77748;SDS011;66938;52.084;5.228;2024-02-14T08:20:41;19.3;;;16.4;;
77748;SDS011;66938;52.084;5.228;2024-02-14T08:22:17;23.0;;;16.2;;
77748;SDS011;66938;52.084;5.228;2024-02-14T08:23:53;19.7;;;16.8;;
77748;SDS011;66938;52.084;5.228;2024-02-14T08:27:06;18.8;;;15.2;;
77748;SDS011;66938;52.084;5.228;2024-02-14T08:28:42;18.11;;;15.4;;
77748;SDS011;66938;52.084;5.228;2024-02-14T08:30:19;19.2;;;14.8;;
77748;SDS011;66938;52.084;5.228;2024-02-14T08:33:30;19.2;;;15.0;;
77748;SDS011;66938;52.084;5.228;2024-02-14T08:35:07;17.7;;;15.0;;
77748;SDS011;66938;52.084;5.228;2024-02-14T08:36:44;16.11;;;13.6;;
77748;SDS011;66938;52.084;5.228;2024-02-14T08:38:20;17.91;;;14.0;;
77748;SDS011;66938;52.084;5.228;2024-02-14T08:41:32;19.5;;;14.3;;
77748;SDS011;66938;52.084;5.228;2024-02-14T08:43:08;16.61;;;14.0;;
77748;SDS011;66938;52.084;5.228;2024-02-14T08:44:44;16.4;;;14.5;;
77748;SDS011;66938;52.084;5.228;2024-02-14T08:47:57;20.6;;;15.9;;
77748;SDS011;66938;52.084;5.228;2024-02-14T08:49:36;18.0;;;14.7;;
77748;SDS011;66938;52.084;5.228;2024-02-14T08:51:12;15.8;;;14.0;;
77748;SDS011;66938;52.084;5.228;2024-02-14T08:54:24;17.3;;;14.6;;
77748;SDS011;66938;52.084;5.228;2024-02-14T08:56:00;15.6;;;13.9;;
77748;SDS011;66938;52.084;5.228;2024-02-14T08:57:36;19.5;;;15.6;;
77748;SDS011;66938;52.084;5.228;2024-02-14T08:59:12;19.5;;;16.2;;
77748;SDS011;66938;52.084;5.228;2024-02-14T09:02:24;17.5;;;14.9;;
77748;SDS011;66938;52.084;5.228;2024-02-14T09:04:01;18.7;;;16.11;;
77748;SDS011;66938;52.084;5.228;2024-02-14T09:05:37;19.2;;;16.2;;
77748;SDS011;66938;52.084;5.228;2024-02-14T09:08:49;16.0;;;13.5;;
77748;SDS011;66938;52.084;5.228;2024-02-14T09:10:25;16.11;;;14.0;;
77748;SDS011;66938;52.084;5.228;2024-02-14T09:12:01;16.7;;;13.1;;
77748;SDS011;66938;52.084;5.228;2024-02-14T09:15:13;15.6;;;13.3;;
77748;SDS011;66938;52.084;5.228;2024-02-14T09:16:49;14.4;;;12.2;;
77748;SDS011;66938;52.084;5.228;2024-02-14T09:18:25;14.1;;;12.3;;
77748;SDS011;66938;52.084;5.228;2024-02-14T09:21:38;15.2;;;13.0;;
77748;SDS011;66938;52.084;5.228;2024-02-14T09:23:14;16.3;;;14.0;;
77748;SDS011;66938;52.084;5.228;2024-02-14T09:24:50;15.4;;;12.9;;
77748;SDS011;66938;52.084;5.228;2024-02-14T09:26:26;17.61;;;13.9;;
77748;SDS011;66938;52.084;5.228;2024-02-14T09:29:38;20.2;;;14.7;;
77748;SDS011;66938;52.084;5.228;2024-02-14T09:31:17;18.61;;;15.4;;
77748;SDS011;66938;52.084;5.228;2024-02-14T09:32:54;17.8;;;14.5;;
77748;SDS011;66938;52.084;5.228;2024-02-14T09:36:10;17.7;;;14.8;;
77748;SDS011;66938;52.084;5.228;2024-02-14T09:37:46;20.3;;;16.3;;
77748;SDS011;66938;52.084;5.228;2024-02-14T09:39:22;20.0;;;17.0;;
77748;SDS011;66938;52.084;5.228;2024-02-14T09:41:00;19.2;;;15.4;;
77748;SDS011;66938;52.084;5.228;2024-02-14T09:44:24;21.7;;;17.91;;
77748;SDS011;66938;52.084;5.228;2024-02-14T09:46:03;20.11;;;17.2;;
77748;SDS011;66938;52.084;5.228;2024-02-14T09:47:40;23.0;;;18.61;;
77748;SDS011;66938;52.084;5.228;2024-02-14T09:50:56;24.1;;;17.8;;
77748;SDS011;66938;52.084;5.228;2024-02-14T09:52:33;23.7;;;18.0;;
77748;SDS011;66938;52.084;5.228;2024-02-14T09:54:10;20.9;;;17.41;;
77748;SDS011;66938;52.084;5.228;2024-02-14T09:55:47;22.3;;;17.5;;
77748;SDS011;66938;52.084;5.228;2024-02-14T09:59:01;20.7;;;16.61;;
77748;SDS011;66938;52.084;5.228;2024-02-14T10:00:38;23.6;;;17.11;;
77748;SDS011;66938;52.084;5.228;2024-02-14T10:02:14;19.61;;;16.9;;
77748;SDS011;66938;52.084;5.228;2024-02-14T10:05:28;18.8;;;16.8;;
77748;SDS011;66938;52.084;5.228;2024-02-14T10:07:04;20.11;;;15.4;;
77748;SDS011;66938;52.084;5.228;2024-02-14T10:08:40;18.5;;;14.6;;
77748;SDS011;66938;52.084;5.228;2024-02-14T10:10:16;20.11;;;14.7;;
77748;SDS011;66938;52.084;5.228;2024-02-14T10:13:29;16.9;;;13.3;;
77748;SDS011;66938;52.084;5.228;2024-02-14T10:15:05;14.5;;;12.1;;
77748;SDS011;66938;52.084;5.228;2024-02-14T10:16:42;15.0;;;12.6;;
77748;SDS011;66938;52.084;5.228;2024-02-14T10:19:55;14.7;;;12.2;;
77748;SDS011;66938;52.084;5.228;2024-02-14T10:21:31;12.4;;;10.7;;
77748;SDS011;66938;52.084;5.228;2024-02-14T10:23:07;12.9;;;11.3;;
77748;SDS011;66938;52.084;5.228;2024-02-14T10:26:21;15.5;;;12.1;;
77748;SDS011;66938;52.084;5.228;2024-02-14T10:28:02;14.5;;;12.0;;
77748;SDS011;66938;52.084;5.228;2024-02-14T10:29:40;16.11;;;12.0;;
77748;SDS011;66938;52.084;5.228;2024-02-14T10:31:20;14.3;;;11.2;;
77748;SDS011;66938;52.084;5.228;2024-02-14T10:34:34;14.9;;;11.7;;
77748;SDS011;66938;52.084;5.228;2024-02-14T10:36:13;14.3;;;11.6;;
77748;SDS011;66938;52.084;5.228;2024-02-14T10:37:50;13.0;;;10.5;;
77748;SDS011;66938;52.084;5.228;2024-02-14T10:41:05;13.6;;;10.9;;
77748;SDS011;66938;52.084;5.228;2024-02-14T10:42:41;14.3;;;11.9;;
77748;SDS011;66938;52.084;5.228;2024-02-14T10:44:17;14.7;;;11.2;;
77748;SDS011;66938;52.084;5.228;2024-02-14T10:45:54;14.7;;;11.3;;
77748;SDS011;66938;52.084;5.228;2024-02-14T10:49:11;12.6;;;11.3;;
77748;SDS011;66938;52.084;5.228;2024-02-14T10:50:48;13.4;;;11.3;;
77748;SDS011;66938;52.084;5.228;2024-02-14T10:52:26;12.9;;;10.9;;
77748;SDS011;66938;52.084;5.228;2024-02-14T10:55:47;12.4;;;11.1;;
77748;SDS011;66938;52.084;5.228;2024-02-14T10:57:24;11.9;;;9.31;;
77748;SDS011;66938;52.084;5.228;2024-02-14T10:59:01;11.5;;;10.1;;
77748;SDS011;66938;52.084;5.228;2024-02-14T11:00:40;12.3;;;10.0;;
77748;SDS011;66938;52.084;5.228;2024-02-14T11:03:55;10.6;;;9.31;;
77748;SDS011;66938;52.084;5.228;2024-02-14T11:05:31;12.2;;;10.0;;
77748;SDS011;66938;52.084;5.228;2024-02-14T11:07:08;12.7;;;10.1;;
77748;SDS011;66938;52.084;5.228;2024-02-14T11:10:37;13.2;;;11.3;;
77748;SDS011;66938;52.084;5.228;2024-02-14T11:12:13;14.3;;;10.4;;
77748;SDS011;66938;52.084;5.228;2024-02-14T11:13:52;11.0;;;9.81;;
77748;SDS011;66938;52.084;5.228;2024-02-14T11:15:28;11.7;;;10.1;;
77748;SDS011;66938;52.084;5.228;2024-02-14T11:18:44;11.2;;;9.21;;
77748;SDS011;66938;52.084;5.228;2024-02-14T11:20:30;11.8;;;10.21;;
77748;SDS011;66938;52.084;5.228;2024-02-14T11:22:09;13.1;;;10.21;;
77748;SDS011;66938;52.084;5.228;2024-02-14T11:23:52;14.5;;;9.81;;
77748;SDS011;66938;52.084;5.228;2024-02-14T11:27:09;10.3;;;9.0;;
77748;SDS011;66938;52.084;5.228;2024-02-14T11:28:46;11.0;;;9.1;;
77748;SDS011;66938;52.084;5.228;2024-02-14T11:30:28;12.9;;;10.1;;
77748;SDS011;66938;52.084;5.228;2024-02-14T11:32:06;11.0;;;9.0;;
77748;SDS011;66938;52.084;5.228;2024-02-14T11:35:20;10.9;;;9.71;;
77748;SDS011;66938;52.084;5.228;2024-02-14T11:36:56;11.7;;;8.71;;
77748;SDS011;66938;52.084;5.228;2024-02-14T11:38:35;11.9;;;9.4;;
77748;SDS011;66938;52.084;5.228;2024-02-14T11:40:11;11.6;;;9.4;;
77748;SDS011;66938;52.084;5.228;2024-02-14T11:43:23;10.7;;;8.9;;
77748;SDS011;66938;52.084;5.228;2024-02-14T11:45:00;12.0;;;9.1;;
77748;SDS011;66938;52.084;5.228;2024-02-14T11:46:36;10.7;;;9.6;;
77748;SDS011;66938;52.084;5.228;2024-02-14T11:49:49;11.3;;;10.1;;
77748;SDS011;66938;52.084;5.228;2024-02-14T11:51:26;10.1;;;9.0;;
77748;SDS011;66938;52.084;5.228;2024-02-14T11:53:03;11.7;;;9.9;;
77748;SDS011;66938;52.084;5.228;2024-02-14T11:56:15;12.1;;;10.1;;
77748;SDS011;66938;52.084;5.228;2024-02-14T11:57:51;11.6;;;9.4;;
77748;SDS011;66938;52.084;5.228;2024-02-14T11:59:28;11.8;;;10.5;;
77748;SDS011;66938;52.084;5.228;2024-02-14T12:02:41;13.6;;;9.81;;
77748;SDS011;66938;52.084;5.228;2024-02-14T12:04:17;12.3;;;10.5;;
77748;SDS011;66938;52.084;5.228;2024-02-14T12:05:55;12.3;;;10.5;;
77748;SDS011;66938;52.084;5.228;2024-02-14T12:07:31;11.4;;;9.0;;
77748;SDS011;66938;52.084;5.228;2024-02-14T12:10:45;11.8;;;9.81;;
77748;SDS011;66938;52.084;5.228;2024-02-14T12:12:22;11.3;;;9.1;;
77748;SDS011;66938;52.084;5.228;2024-02-14T12:14:00;13.3;;;9.6;;
77748;SDS011;66938;52.084;5.228;2024-02-14T12:17:15;13.3;;;9.6;;
77748;SDS011;66938;52.084;5.228;2024-02-14T12:19:03;10.3;;;9.31;;
77748;SDS011;66938;52.084;5.228;2024-02-14T12:20:40;11.3;;;10.0;;
77748;SDS011;66938;52.084;5.228;2024-02-14T12:22:17;11.0;;;9.9;;
77748;SDS011;66938;52.084;5.228;2024-02-14T12:25:34;10.6;;;9.5;;
77748;SDS011;66938;52.084;5.228;2024-02-14T12:27:10;11.2;;;9.4;;
77748;SDS011;66938;52.084;5.228;2024-02-14T12:28:46;11.4;;;9.71;;
77748;SDS011;66938;52.084;5.228;2024-02-14T12:32:03;9.81;;;8.81;;
77748;SDS011;66938;52.084;5.228;2024-02-14T12:33:40;11.4;;;9.31;;
77748;SDS011;66938;52.084;5.228;2024-02-14T12:35:16;11.3;;;9.31;;